Terminal Aerodrome Forecast
Issued by NWS

Home | Current Version | Previous Version | Text Only | Print | Product List | Glossary On
Versions: 1 2 3 4 5 6 7 8 9 10 11 12 13 14 15 16 17 18 19 20 21 22 23 24 25
854
FTUS43 KMQT 210527
TAFCMX
TAF
KCMX 210527Z 2106/2206 12003KT 1/2SM FG VCSH OVC003
     FM210700 12003KT 1/4SM FG VCSH OVC003
     FM211100 12004KT 1/4SM FG OVC008
     FM211600 12006KT 1SM BR OVC008
     FM212000 10008KT 1 1/2SM BR VCSH OVC008
     FM220000 10008KT 1 1/2SM -SHRA OVC003=

USA.gov is the U.S. government's official web portal to all federal, state and local government web resources and services.